Terminal Aerodrome Forecast
Issued by NWS Jackson, KY

Home | Current Version | Previous Version | Graphics & Text | Print | Product List | Glossary On
Versions: 1 2 3 4 5 6 7 8 9 10 11 12 13
000
FTUS43 KJKL 311723
TAFJKL
TAF
KJKL 311723Z 3118/0118 VRB03KT P6SM SCT030 SCT045
     FM010700 00000KT 3SM BR SKC
      TEMPO 0108/0112 1/2SM FG VV001
     FM011300 00000KT 4SM HZ BKN100
     FM011700 02003KT P6SM BKN100=

USA.gov is the U.S. government's official web portal to all federal, state and local government web resources and services.